Terminal Aerodrome Forecast
Issued by NWS

Current Version | Previous Version | Text Only | Print | Product List | Glossary On
Versions: 1 2 3 4 5 6 7 8 9 10 11 12 13 14 15 16 17 18 19 20 21 22 23 24 25 26 27 28 29
000
FTUS46 KLOX 030542
TAFSBP
TAF
KSBP 030542Z 0306/0406 32006KT P6SM SKC
     FM030900 VRB03KT 3SM BR OVC007
     FM031700 31008KT P6SM SCT007
     FM032100 32015KT P6SM SKC
     FM040300 32008KT P6SM BKN015=

USA.gov is the U.S. government's official web portal to all federal, state and local government web resources and services.